sensor_id;sensor_type;location;lat;lon;timestamp;temperature;humidity
20487;DHT22;10402;49.012;8.370;2022-07-03T00:01:27;22.50;57.20
20487;DHT22;10402;49.012;8.370;2022-07-03T00:03:53;22.50;57.30
20487;DHT22;10402;49.012;8.370;2022-07-03T00:06:18;22.50;57.50
20487;DHT22;10402;49.012;8.370;2022-07-03T00:08:44;22.40;57.50
20487;DHT22;10402;49.012;8.370;2022-07-03T00:11:10;22.40;57.60
20487;DHT22;10402;49.012;8.370;2022-07-03T00:13:37;22.30;57.60
20487;DHT22;10402;49.012;8.370;2022-07-03T00:16:02;22.20;57.80
20487;DHT22;10402;49.012;8.370;2022-07-03T00:18:28;22.20;58.00
20487;DHT22;10402;49.012;8.370;2022-07-03T00:21:04;22.20;58.20
20487;DHT22;10402;49.012;8.370;2022-07-03T00:23:40;22.10;58.20
20487;DHT22;10402;49.012;8.370;2022-07-03T00:26:08;22.10;58.30
20487;DHT22;10402;49.012;8.370;2022-07-03T00:28:33;22.10;58.60
20487;DHT22;10402;49.012;8.370;2022-07-03T00:30:59;22.00;58.70
20487;DHT22;10402;49.012;8.370;2022-07-03T00:33:27;22.00;58.80
20487;DHT22;10402;49.012;8.370;2022-07-03T00:35:55;22.00;58.90
20487;DHT22;10402;49.012;8.370;2022-07-03T00:38:22;21.90;58.90
20487;DHT22;10402;49.012;8.370;2022-07-03T00:40:48;22.00;59.20
20487;DHT22;10402;49.012;8.370;2022-07-03T00:43:16;21.90;59.20
20487;DHT22;10402;49.012;8.370;2022-07-03T00:45:47;21.90;59.30
20487;DHT22;10402;49.012;8.370;2022-07-03T00:48:15;21.90;59.30
20487;DHT22;10402;49.012;8.370;2022-07-03T00:50:46;21.90;59.50
20487;DHT22;10402;49.012;8.370;2022-07-03T00:53:13;21.80;59.50
20487;DHT22;10402;49.012;8.370;2022-07-03T00:55:44;21.80;59.70
20487;DHT22;10402;49.012;8.370;2022-07-03T00:58:16;21.70;59.70
20487;DHT22;10402;49.012;8.370;2022-07-03T01:00:43;21.70;59.80
20487;DHT22;10402;49.012;8.370;2022-07-03T01:03:17;21.70;59.80
20487;DHT22;10402;49.012;8.370;2022-07-03T01:05:54;21.70;59.90
20487;DHT22;10402;49.012;8.370;2022-07-03T01:11:03;21.60;60.00
20487;DHT22;10402;49.012;8.370;2022-07-03T01:13:51;21.50;60.70
20487;DHT22;10402;49.012;8.370;2022-07-03T01:16:25;21.60;60.00
20487;DHT22;10402;49.012;8.370;2022-07-03T01:19:45;21.60;60.10
20487;DHT22;10402;49.012;8.370;2022-07-03T01:22:15;21.60;60.20
20487;DHT22;10402;49.012;8.370;2022-07-03T01:27:34;21.40;60.20
20487;DHT22;10402;49.012;8.370;2022-07-03T01:30:08;21.30;60.40
20487;DHT22;10402;49.012;8.370;2022-07-03T01:32:42;21.30;60.60
20487;DHT22;10402;49.012;8.370;2022-07-03T01:35:09;21.20;60.60
20487;DHT22;10402;49.012;8.370;2022-07-03T01:37:40;21.20;60.80
20487;DHT22;10402;49.012;8.370;2022-07-03T01:40:06;21.20;60.90
20487;DHT22;10402;49.012;8.370;2022-07-03T01:42:33;21.20;60.90
20487;DHT22;10402;49.012;8.370;2022-07-03T01:44:59;21.20;61.00
20487;DHT22;10402;49.012;8.370;2022-07-03T01:47:26;21.10;60.80
20487;DHT22;10402;49.012;8.370;2022-07-03T01:49:53;21.10;60.90
20487;DHT22;10402;49.012;8.370;2022-07-03T01:52:20;21.20;61.00
20487;DHT22;10402;49.012;8.370;2022-07-03T01:54:47;21.10;61.00
20487;DHT22;10402;49.012;8.370;2022-07-03T01:57:14;21.10;61.10
20487;DHT22;10402;49.012;8.370;2022-07-03T01:59:40;21.10;61.20
20487;DHT22;10402;49.012;8.370;2022-07-03T02:02:17;21.10;61.20
20487;DHT22;10402;49.012;8.370;2022-07-03T02:05:26;21.10;61.30
20487;DHT22;10402;49.012;8.370;2022-07-03T02:10:42;21.10;61.40
20487;DHT22;10402;49.012;8.370;2022-07-03T02:13:27;21.10;61.60
20487;DHT22;10402;49.012;8.370;2022-07-03T02:15:57;21.10;61.70
20487;DHT22;10402;49.012;8.370;2022-07-03T02:18:31;21.00;61.60
20487;DHT22;10402;49.012;8.370;2022-07-03T02:23:39;21.00;61.60
20487;DHT22;10402;49.012;8.370;2022-07-03T02:26:10;21.00;61.70
20487;DHT22;10402;49.012;8.370;2022-07-03T02:28:41;21.00;61.80
20487;DHT22;10402;49.012;8.370;2022-07-03T02:31:11;21.00;61.90
20487;DHT22;10402;49.012;8.370;2022-07-03T02:33:41;20.90;62.10
20487;DHT22;10402;49.012;8.370;2022-07-03T02:36:11;20.90;62.30
20487;DHT22;10402;49.012;8.370;2022-07-03T02:38:43;20.90;62.50
20487;DHT22;10402;49.012;8.370;2022-07-03T02:43:51;20.80;62.60
20487;DHT22;10402;49.012;8.370;2022-07-03T02:52:42;20.70;63.00
20487;DHT22;10402;49.012;8.370;2022-07-03T02:55:17;20.70;63.20
20487;DHT22;10402;49.012;8.370;2022-07-03T02:57:57;20.60;63.40
20487;DHT22;10402;49.012;8.370;2022-07-03T03:00:33;20.70;63.70
20487;DHT22;10402;49.012;8.370;2022-07-03T03:03:01;20.60;63.60
20487;DHT22;10402;49.012;8.370;2022-07-03T03:05:49;20.60;63.70
20487;DHT22;10402;49.012;8.370;2022-07-03T03:11:08;20.60;63.70
20487;DHT22;10402;49.012;8.370;2022-07-03T03:13:35;20.60;63.90
20487;DHT22;10402;49.012;8.370;2022-07-03T03:16:06;20.60;63.90
20487;DHT22;10402;49.012;8.370;2022-07-03T03:18:39;20.60;63.90
20487;DHT22;10402;49.012;8.370;2022-07-03T03:21:13;20.60;64.00
20487;DHT22;10402;49.012;8.370;2022-07-03T03:26:21;20.60;64.10
20487;DHT22;10402;49.012;8.370;2022-07-03T03:28:48;20.60;64.10
20487;DHT22;10402;49.012;8.370;2022-07-03T03:31:14;20.60;64.20
20487;DHT22;10402;49.012;8.370;2022-07-03T03:33:45;20.60;64.30
20487;DHT22;10402;49.012;8.370;2022-07-03T03:36:13;20.60;65.00
20487;DHT22;10402;49.012;8.370;2022-07-03T03:38:40;20.60;64.20
20487;DHT22;10402;49.012;8.370;2022-07-03T03:41:06;20.50;64.10
20487;DHT22;10402;49.012;8.370;2022-07-03T03:43:33;20.50;64.20
20487;DHT22;10402;49.012;8.370;2022-07-03T03:45:59;20.50;64.40
20487;DHT22;10402;49.012;8.370;2022-07-03T03:48:26;20.50;64.50
20487;DHT22;10402;49.012;8.370;2022-07-03T03:50:53;20.50;64.60
20487;DHT22;10402;49.012;8.370;2022-07-03T03:53:19;20.50;64.60
20487;DHT22;10402;49.012;8.370;2022-07-03T03:56:00;20.40;64.60
20487;DHT22;10402;49.012;8.370;2022-07-03T03:58:27;20.40;64.80
20487;DHT22;10402;49.012;8.370;2022-07-03T04:00:58;20.40;65.00
20487;DHT22;10402;49.012;8.370;2022-07-03T04:03:27;20.30;64.90
20487;DHT22;10402;49.012;8.370;2022-07-03T04:05:53;20.30;65.00
20487;DHT22;10402;49.012;8.370;2022-07-03T04:08:20;20.30;65.00
20487;DHT22;10402;49.012;8.370;2022-07-03T04:10:46;20.30;65.20
20487;DHT22;10402;49.012;8.370;2022-07-03T04:13:13;20.30;65.20
20487;DHT22;10402;49.012;8.370;2022-07-03T04:15:41;20.30;65.30
20487;DHT22;10402;49.012;8.370;2022-07-03T04:18:06;20.30;65.30
20487;DHT22;10402;49.012;8.370;2022-07-03T04:20:32;20.30;65.40
20487;DHT22;10402;49.012;8.370;2022-07-03T04:22:58;20.30;65.40
20487;DHT22;10402;49.012;8.370;2022-07-03T04:25:23;20.30;65.40
20487;DHT22;10402;49.012;8.370;2022-07-03T04:27:49;20.30;65.50
20487;DHT22;10402;49.012;8.370;2022-07-03T04:30:15;20.40;65.70
20487;DHT22;10402;49.012;8.370;2022-07-03T04:32:40;20.30;65.60
20487;DHT22;10402;49.012;8.370;2022-07-03T04:35:07;20.40;65.80
20487;DHT22;10402;49.012;8.370;2022-07-03T04:37:32;20.40;65.90
20487;DHT22;10402;49.012;8.370;2022-07-03T04:39:58;20.40;66.00
20487;DHT22;10402;49.012;8.370;2022-07-03T04:42:23;20.50;66.10
20487;DHT22;10402;49.012;8.370;2022-07-03T04:44:49;20.50;66.00
20487;DHT22;10402;49.012;8.370;2022-07-03T04:47:14;20.50;66.00
20487;DHT22;10402;49.012;8.370;2022-07-03T04:49:43;20.60;66.10
20487;DHT22;10402;49.012;8.370;2022-07-03T04:52:09;20.60;66.00
20487;DHT22;10402;49.012;8.370;2022-07-03T04:54:36;20.60;66.10
20487;DHT22;10402;49.012;8.370;2022-07-03T04:57:02;20.60;66.10
20487;DHT22;10402;49.012;8.370;2022-07-03T04:59:27;20.70;66.10
20487;DHT22;10402;49.012;8.370;2022-07-03T05:01:53;20.80;66.30
20487;DHT22;10402;49.012;8.370;2022-07-03T05:04:18;20.90;66.30
20487;DHT22;10402;49.012;8.370;2022-07-03T05:06:44;20.90;66.10
20487;DHT22;10402;49.012;8.370;2022-07-03T05:09:10;20.90;66.10
20487;DHT22;10402;49.012;8.370;2022-07-03T05:11:36;21.00;66.20
20487;DHT22;10402;49.012;8.370;2022-07-03T05:14:03;21.10;66.20
20487;DHT22;10402;49.012;8.370;2022-07-03T05:16:29;21.10;66.20
20487;DHT22;10402;49.012;8.370;2022-07-03T05:18:54;21.10;66.20
20487;DHT22;10402;49.012;8.370;2022-07-03T05:21:20;21.20;66.40
20487;DHT22;10402;49.012;8.370;2022-07-03T05:23:45;21.20;66.40
20487;DHT22;10402;49.012;8.370;2022-07-03T05:26:11;21.20;66.40
20487;DHT22;10402;49.012;8.370;2022-07-03T05:28:37;21.20;66.40
20487;DHT22;10402;49.012;8.370;2022-07-03T05:31:02;21.20;66.50
20487;DHT22;10402;49.012;8.370;2022-07-03T05:33:28;21.20;66.70
20487;DHT22;10402;49.012;8.370;2022-07-03T05:35:57;21.20;66.80
20487;DHT22;10402;49.012;8.370;2022-07-03T05:38:23;21.20;66.90
20487;DHT22;10402;49.012;8.370;2022-07-03T05:41:07;21.30;67.00
20487;DHT22;10402;49.012;8.370;2022-07-03T05:43:32;21.30;67.00
20487;DHT22;10402;49.012;8.370;2022-07-03T05:45:58;21.30;67.00
20487;DHT22;10402;49.012;8.370;2022-07-03T05:48:24;21.40;67.00
20487;DHT22;10402;49.012;8.370;2022-07-03T05:50:49;21.40;67.00
20487;DHT22;10402;49.012;8.370;2022-07-03T05:53:15;21.40;67.00
20487;DHT22;10402;49.012;8.370;2022-07-03T05:55:40;21.40;66.90
20487;DHT22;10402;49.012;8.370;2022-07-03T05:58:06;21.50;66.90
20487;DHT22;10402;49.012;8.370;2022-07-03T06:00:32;21.50;66.80
20487;DHT22;10402;49.012;8.370;2022-07-03T06:02:57;21.60;66.80
20487;DHT22;10402;49.012;8.370;2022-07-03T06:05:23;21.60;66.80
20487;DHT22;10402;49.012;8.370;2022-07-03T06:07:48;21.60;66.70
20487;DHT22;10402;49.012;8.370;2022-07-03T06:10:15;21.70;66.70
20487;DHT22;10402;49.012;8.370;2022-07-03T06:12:41;21.70;66.60
20487;DHT22;10402;49.012;8.370;2022-07-03T06:15:06;21.70;66.60
20487;DHT22;10402;49.012;8.370;2022-07-03T06:17:35;21.70;66.50
20487;DHT22;10402;49.012;8.370;2022-07-03T06:20:02;21.70;66.40
20487;DHT22;10402;49.012;8.370;2022-07-03T06:22:28;21.80;66.60
20487;DHT22;10402;49.012;8.370;2022-07-03T06:24:53;21.80;66.50
20487;DHT22;10402;49.012;8.370;2022-07-03T06:27:19;21.90;66.60
20487;DHT22;10402;49.012;8.370;2022-07-03T06:29:44;21.90;66.40
20487;DHT22;10402;49.012;8.370;2022-07-03T06:32:10;22.00;66.40
20487;DHT22;10402;49.012;8.370;2022-07-03T06:34:35;22.10;66.30
20487;DHT22;10402;49.012;8.370;2022-07-03T06:37:01;22.10;66.20
20487;DHT22;10402;49.012;8.370;2022-07-03T06:39:27;22.20;66.10
20487;DHT22;10402;49.012;8.370;2022-07-03T06:41:52;22.20;65.90
20487;DHT22;10402;49.012;8.370;2022-07-03T06:44:18;22.30;66.00
20487;DHT22;10402;49.012;8.370;2022-07-03T06:46:43;22.30;66.00
20487;DHT22;10402;49.012;8.370;2022-07-03T06:49:09;22.40;65.80
20487;DHT22;10402;49.012;8.370;2022-07-03T06:51:34;22.30;65.60
20487;DHT22;10402;49.012;8.370;2022-07-03T06:54:00;22.40;65.50
20487;DHT22;10402;49.012;8.370;2022-07-03T06:56:26;22.40;65.20
20487;DHT22;10402;49.012;8.370;2022-07-03T06:58:52;22.50;65.20
20487;DHT22;10402;49.012;8.370;2022-07-03T07:01:17;22.50;65.00
20487;DHT22;10402;49.012;8.370;2022-07-03T07:03:43;22.50;64.80
20487;DHT22;10402;49.012;8.370;2022-07-03T07:06:08;22.50;64.70
20487;DHT22;10402;49.012;8.370;2022-07-03T07:08:34;22.60;65.50
20487;DHT22;10402;49.012;8.370;2022-07-03T07:10:59;22.60;64.50
20487;DHT22;10402;49.012;8.370;2022-07-03T07:13:25;22.70;64.40
20487;DHT22;10402;49.012;8.370;2022-07-03T07:15:51;22.70;64.20
20487;DHT22;10402;49.012;8.370;2022-07-03T07:18:17;22.80;64.10
20487;DHT22;10402;49.012;8.370;2022-07-03T07:20:42;22.80;63.70
20487;DHT22;10402;49.012;8.370;2022-07-03T07:23:08;22.90;63.60
20487;DHT22;10402;49.012;8.370;2022-07-03T07:25:33;23.00;63.70
20487;DHT22;10402;49.012;8.370;2022-07-03T07:27:59;23.00;63.40
20487;DHT22;10402;49.012;8.370;2022-07-03T07:30:24;23.10;63.20
20487;DHT22;10402;49.012;8.370;2022-07-03T07:32:50;23.10;63.00
20487;DHT22;10402;49.012;8.370;2022-07-03T07:35:15;23.20;62.80
20487;DHT22;10402;49.012;8.370;2022-07-03T07:37:41;23.20;62.50
20487;DHT22;10402;49.012;8.370;2022-07-03T07:40:07;23.30;62.30
20487;DHT22;10402;49.012;8.370;2022-07-03T07:42:33;23.40;62.10
20487;DHT22;10402;49.012;8.370;2022-07-03T07:44:58;23.50;62.00
20487;DHT22;10402;49.012;8.370;2022-07-03T07:47:24;23.50;61.60
20487;DHT22;10402;49.012;8.370;2022-07-03T07:49:49;23.50;61.20
20487;DHT22;10402;49.012;8.370;2022-07-03T07:52:15;23.60;61.10
20487;DHT22;10402;49.012;8.370;2022-07-03T07:54:40;23.70;61.00
20487;DHT22;10402;49.012;8.370;2022-07-03T07:57:06;23.70;60.60
20487;DHT22;10402;49.012;8.370;2022-07-03T07:59:31;23.80;60.50
20487;DHT22;10402;49.012;8.370;2022-07-03T08:01:57;23.90;60.50
20487;DHT22;10402;49.012;8.370;2022-07-03T08:04:41;23.90;60.40
20487;DHT22;10402;49.012;8.370;2022-07-03T08:07:25;24.00;60.20
20487;DHT22;10402;49.012;8.370;2022-07-03T08:09:50;24.00;60.00
20487;DHT22;10402;49.012;8.370;2022-07-03T08:12:19;24.00;59.90
20487;DHT22;10402;49.012;8.370;2022-07-03T08:14:44;24.10;59.90
20487;DHT22;10402;49.012;8.370;2022-07-03T08:17:10;24.20;59.90
20487;DHT22;10402;49.012;8.370;2022-07-03T08:19:35;24.20;59.80
20487;DHT22;10402;49.012;8.370;2022-07-03T08:22:01;24.30;59.80
20487;DHT22;10402;49.012;8.370;2022-07-03T08:24:27;24.30;59.60
20487;DHT22;10402;49.012;8.370;2022-07-03T08:26:52;24.30;59.50
20487;DHT22;10402;49.012;8.370;2022-07-03T08:29:18;24.30;59.40
20487;DHT22;10402;49.012;8.370;2022-07-03T08:31:43;24.40;59.30
20487;DHT22;10402;49.012;8.370;2022-07-03T08:34:09;24.40;59.30
20487;DHT22;10402;49.012;8.370;2022-07-03T08:36:42;24.40;59.20
20487;DHT22;10402;49.012;8.370;2022-07-03T08:39:08;24.50;59.30
20487;DHT22;10402;49.012;8.370;2022-07-03T08:41:37;24.50;59.10
20487;DHT22;10402;49.012;8.370;2022-07-03T08:44:04;24.60;59.00
20487;DHT22;10402;49.012;8.370;2022-07-03T08:46:31;24.70;58.90
20487;DHT22;10402;49.012;8.370;2022-07-03T08:48:59;24.70;58.60
20487;DHT22;10402;49.012;8.370;2022-07-03T08:51:27;24.70;58.30
20487;DHT22;10402;49.012;8.370;2022-07-03T08:53:53;24.80;58.20
20487;DHT22;10402;49.012;8.370;2022-07-03T08:56:21;24.80;58.60
20487;DHT22;10402;49.012;8.370;2022-07-03T08:58:47;24.90;57.80
20487;DHT22;10402;49.012;8.370;2022-07-03T09:01:15;24.90;57.60
20487;DHT22;10402;49.012;8.370;2022-07-03T09:03:42;25.00;57.60
20487;DHT22;10402;49.012;8.370;2022-07-03T09:06:08;25.00;57.50
20487;DHT22;10402;49.012;8.370;2022-07-03T09:08:34;25.00;57.30
20487;DHT22;10402;49.012;8.370;2022-07-03T09:10:59;25.10;57.20
20487;DHT22;10402;49.012;8.370;2022-07-03T09:13:27;25.10;57.00
20487;DHT22;10402;49.012;8.370;2022-07-03T09:15:53;25.30;56.90
20487;DHT22;10402;49.012;8.370;2022-07-03T09:18:39;25.30;56.50
20487;DHT22;10402;49.012;8.370;2022-07-03T09:21:05;25.40;56.50
20487;DHT22;10402;49.012;8.370;2022-07-03T09:23:41;25.40;56.50
20487;DHT22;10402;49.012;8.370;2022-07-03T09:26:13;25.50;56.40
20487;DHT22;10402;49.012;8.370;2022-07-03T09:31:08;25.50;56.10
20487;DHT22;10402;49.012;8.370;2022-07-03T09:33:34;25.60;56.00
20487;DHT22;10402;49.012;8.370;2022-07-03T09:36:00;25.60;55.90
20487;DHT22;10402;49.012;8.370;2022-07-03T09:38:26;25.70;55.90
20487;DHT22;10402;49.012;8.370;2022-07-03T09:40:55;25.70;55.70
20487;DHT22;10402;49.012;8.370;2022-07-03T09:43:30;25.80;55.70
20487;DHT22;10402;49.012;8.370;2022-07-03T09:45:59;25.80;55.50
20487;DHT22;10402;49.012;8.370;2022-07-03T09:48:43;25.90;55.50
20487;DHT22;10402;49.012;8.370;2022-07-03T09:51:10;25.90;55.50
20487;DHT22;10402;49.012;8.370;2022-07-03T09:54:03;25.90;55.40
20487;DHT22;10402;49.012;8.370;2022-07-03T09:56:37;26.00;55.40
20487;DHT22;10402;49.012;8.370;2022-07-03T09:59:05;26.00;55.20
20487;DHT22;10402;49.012;8.370;2022-07-03T10:01:32;26.00;55.00
20487;DHT22;10402;49.012;8.370;2022-07-03T10:06:50;26.00;54.60
20487;DHT22;10402;49.012;8.370;2022-07-03T10:09:18;26.10;54.40
20487;DHT22;10402;49.012;8.370;2022-07-03T10:11:44;26.20;54.10
20487;DHT22;10402;49.012;8.370;2022-07-03T10:14:21;26.20;53.60
20487;DHT22;10402;49.012;8.370;2022-07-03T10:16:47;26.20;53.40
20487;DHT22;10402;49.012;8.370;2022-07-03T10:19:21;26.30;53.30
20487;DHT22;10402;49.012;8.370;2022-07-03T10:21:53;26.30;53.30
20487;DHT22;10402;49.012;8.370;2022-07-03T10:24:25;26.30;53.30
20487;DHT22;10402;49.012;8.370;2022-07-03T10:26:52;26.30;53.10
20487;DHT22;10402;49.012;8.370;2022-07-03T10:29:21;26.40;53.00
20487;DHT22;10402;49.012;8.370;2022-07-03T10:31:47;26.40;52.80
20487;DHT22;10402;49.012;8.370;2022-07-03T10:34:23;26.40;52.60
20487;DHT22;10402;49.012;8.370;2022-07-03T10:36:53;26.40;52.40
20487;DHT22;10402;49.012;8.370;2022-07-03T10:42:17;26.40;52.10
20487;DHT22;10402;49.012;8.370;2022-07-03T10:45:10;26.40;52.10
20487;DHT22;10402;49.012;8.370;2022-07-03T10:47:47;26.50;52.10
20487;DHT22;10402;49.012;8.370;2022-07-03T10:50:23;26.60;51.80
20487;DHT22;10402;49.012;8.370;2022-07-03T10:52:49;26.60;51.60
20487;DHT22;10402;49.012;8.370;2022-07-03T10:55:16;26.60;51.40
20487;DHT22;10402;49.012;8.370;2022-07-03T11:00:28;26.70;51.50
20487;DHT22;10402;49.012;8.370;2022-07-03T11:02:53;26.70;51.30
20487;DHT22;10402;49.012;8.370;2022-07-03T11:05:24;26.70;51.30
20487;DHT22;10402;49.012;8.370;2022-07-03T11:28:05;26.80;50.50
20487;DHT22;10402;49.012;8.370;2022-07-03T11:30:31;26.80;50.40
20487;DHT22;10402;49.012;8.370;2022-07-03T11:32:57;26.80;50.40
20487;DHT22;10402;49.012;8.370;2022-07-03T11:35:42;26.80;50.40
20487;DHT22;10402;49.012;8.370;2022-07-03T11:38:10;26.80;50.40
20487;DHT22;10402;49.012;8.370;2022-07-03T11:40:38;26.80;50.10
20487;DHT22;10402;49.012;8.370;2022-07-03T11:43:05;26.80;50.10
20487;DHT22;10402;49.012;8.370;2022-07-03T11:45:31;26.90;50.00
20487;DHT22;10402;49.012;8.370;2022-07-03T11:47:56;26.90;49.90
20487;DHT22;10402;49.012;8.370;2022-07-03T11:50:36;26.90;49.90
20487;DHT22;10402;49.012;8.370;2022-07-03T11:53:24;26.90;49.90
20487;DHT22;10402;49.012;8.370;2022-07-03T11:55:58;27.00;49.80
20487;DHT22;10402;49.012;8.370;2022-07-03T11:58:25;27.00;49.70
20487;DHT22;10402;49.012;8.370;2022-07-03T12:00:52;27.00;49.50
20487;DHT22;10402;49.012;8.370;2022-07-03T12:03:24;27.00;49.50
20487;DHT22;10402;49.012;8.370;2022-07-03T12:05:55;27.00;49.50
20487;DHT22;10402;49.012;8.370;2022-07-03T12:08:23;27.00;49.40
20487;DHT22;10402;49.012;8.370;2022-07-03T12:10:49;27.10;49.20
20487;DHT22;10402;49.012;8.370;2022-07-03T12:13:19;27.10;49.10
20487;DHT22;10402;49.012;8.370;2022-07-03T12:15:46;27.20;49.20
20487;DHT22;10402;49.012;8.370;2022-07-03T12:18:11;27.20;49.20
20487;DHT22;10402;49.012;8.370;2022-07-03T12:20:37;27.30;49.20
20487;DHT22;10402;49.012;8.370;2022-07-03T12:23:03;27.30;49.10
20487;DHT22;10402;49.012;8.370;2022-07-03T12:25:31;27.30;49.20
20487;DHT22;10402;49.012;8.370;2022-07-03T12:27:57;27.30;49.10
20487;DHT22;10402;49.012;8.370;2022-07-03T12:30:23;27.30;49.10
20487;DHT22;10402;49.012;8.370;2022-07-03T12:32:51;27.30;49.10
20487;DHT22;10402;49.012;8.370;2022-07-03T12:35:24;27.30;49.10
20487;DHT22;10402;49.012;8.370;2022-07-03T12:37:50;27.40;49.20
20487;DHT22;10402;49.012;8.370;2022-07-03T12:40:15;27.40;49.10
20487;DHT22;10402;49.012;8.370;2022-07-03T12:42:43;27.30;49.10
20487;DHT22;10402;49.012;8.370;2022-07-03T12:45:12;27.30;49.20
20487;DHT22;10402;49.012;8.370;2022-07-03T12:47:37;27.30;49.10
20487;DHT22;10402;49.012;8.370;2022-07-03T12:50:05;27.30;49.10
20487;DHT22;10402;49.012;8.370;2022-07-03T12:52:32;27.40;49.00
20487;DHT22;10402;49.012;8.370;2022-07-03T12:54:58;27.50;49.00
20487;DHT22;10402;49.012;8.370;2022-07-03T12:57:24;27.50;49.00
20487;DHT22;10402;49.012;8.370;2022-07-03T13:02:40;27.60;48.80
20487;DHT22;10402;49.012;8.370;2022-07-03T13:05:20;27.60;49.40
20487;DHT22;10402;49.012;8.370;2022-07-03T13:07:47;27.70;48.60
20487;DHT22;10402;49.012;8.370;2022-07-03T13:10:20;27.80;48.50
20487;DHT22;10402;49.012;8.370;2022-07-03T13:12:54;27.80;48.40
20487;DHT22;10402;49.012;8.370;2022-07-03T13:15:23;27.80;48.40
20487;DHT22;10402;49.012;8.370;2022-07-03T13:20:16;27.80;48.40
20487;DHT22;10402;49.012;8.370;2022-07-03T13:22:41;27.90;48.50
20487;DHT22;10402;49.012;8.370;2022-07-03T13:25:07;27.90;48.20
20487;DHT22;10402;49.012;8.370;2022-07-03T13:27:33;28.00;48.10
20487;DHT22;10402;49.012;8.370;2022-07-03T13:29:58;28.10;48.10
20487;DHT22;10402;49.012;8.370;2022-07-03T13:32:24;28.10;48.00
20487;DHT22;10402;49.012;8.370;2022-07-03T13:34:49;28.10;48.10
20487;DHT22;10402;49.012;8.370;2022-07-03T13:37:15;28.10;48.10
20487;DHT22;10402;49.012;8.370;2022-07-03T13:39:40;28.10;48.10
20487;DHT22;10402;49.012;8.370;2022-07-03T13:42:06;28.20;48.00
20487;DHT22;10402;49.012;8.370;2022-07-03T13:44:36;28.20;48.00
20487;DHT22;10402;49.012;8.370;2022-07-03T13:47:02;28.20;47.80
20487;DHT22;10402;49.012;8.370;2022-07-03T13:49:28;28.20;47.80
20487;DHT22;10402;49.012;8.370;2022-07-03T13:51:53;28.20;47.70
20487;DHT22;10402;49.012;8.370;2022-07-03T13:54:19;28.30;47.60
20487;DHT22;10402;49.012;8.370;2022-07-03T13:56:45;28.30;47.40
20487;DHT22;10402;49.012;8.370;2022-07-03T13:59:10;28.40;47.30
20487;DHT22;10402;49.012;8.370;2022-07-03T14:01:37;28.40;47.10
20487;DHT22;10402;49.012;8.370;2022-07-03T14:04:03;28.40;47.00
20487;DHT22;10402;49.012;8.370;2022-07-03T14:06:28;28.40;46.90
20487;DHT22;10402;49.012;8.370;2022-07-03T14:08:54;28.40;47.00
20487;DHT22;10402;49.012;8.370;2022-07-03T14:11:19;28.40;47.00
20487;DHT22;10402;49.012;8.370;2022-07-03T14:13:45;28.40;47.10
20487;DHT22;10402;49.012;8.370;2022-07-03T14:16:11;28.40;47.00
20487;DHT22;10402;49.012;8.370;2022-07-03T14:18:37;28.40;46.90
20487;DHT22;10402;49.012;8.370;2022-07-03T14:21:03;28.40;46.90
20487;DHT22;10402;49.012;8.370;2022-07-03T14:23:31;28.40;46.90
20487;DHT22;10402;49.012;8.370;2022-07-03T14:26:00;28.40;46.90
20487;DHT22;10402;49.012;8.370;2022-07-03T14:28:26;28.40;46.90
20487;DHT22;10402;49.012;8.370;2022-07-03T14:31:18;28.40;46.90
20487;DHT22;10402;49.012;8.370;2022-07-03T14:33:53;28.40;46.80
20487;DHT22;10402;49.012;8.370;2022-07-03T14:36:20;28.30;46.70
20487;DHT22;10402;49.012;8.370;2022-07-03T14:38:46;28.40;46.70
20487;DHT22;10402;49.012;8.370;2022-07-03T14:41:11;28.30;46.80
20487;DHT22;10402;49.012;8.370;2022-07-03T14:43:37;28.30;46.80
20487;DHT22;10402;49.012;8.370;2022-07-03T14:46:02;28.30;46.80
20487;DHT22;10402;49.012;8.370;2022-07-03T14:48:28;28.30;46.80
20487;DHT22;10402;49.012;8.370;2022-07-03T14:50:54;28.40;47.00
20487;DHT22;10402;49.012;8.370;2022-07-03T14:53:20;28.30;47.00
20487;DHT22;10402;49.012;8.370;2022-07-03T14:55:47;28.30;47.00
20487;DHT22;10402;49.012;8.370;2022-07-03T14:58:20;28.40;47.00
20487;DHT22;10402;49.012;8.370;2022-07-03T15:00:53;28.40;46.90
20487;DHT22;10402;49.012;8.370;2022-07-03T15:05:57;28.50;46.90
20487;DHT22;10402;49.012;8.370;2022-07-03T15:11:20;28.50;46.70
20487;DHT22;10402;49.012;8.370;2022-07-03T15:14:02;28.60;46.80
20487;DHT22;10402;49.012;8.370;2022-07-03T15:16:30;28.60;46.70
20487;DHT22;10402;49.012;8.370;2022-07-03T15:19:00;28.60;46.60
20487;DHT22;10402;49.012;8.370;2022-07-03T15:21:30;28.60;46.60
20487;DHT22;10402;49.012;8.370;2022-07-03T15:24:02;28.60;46.60
20487;DHT22;10402;49.012;8.370;2022-07-03T15:26:29;28.60;46.50
20487;DHT22;10402;49.012;8.370;2022-07-03T15:28:58;28.60;46.40
20487;DHT22;10402;49.012;8.370;2022-07-03T15:31:26;28.60;46.40
20487;DHT22;10402;49.012;8.370;2022-07-03T15:33:52;28.60;46.30
20487;DHT22;10402;49.012;8.370;2022-07-03T15:36:18;28.70;46.20
20487;DHT22;10402;49.012;8.370;2022-07-03T15:38:52;28.60;46.20
20487;DHT22;10402;49.012;8.370;2022-07-03T15:41:28;28.60;46.20
20487;DHT22;10402;49.012;8.370;2022-07-03T15:43:58;28.60;46.30
20487;DHT22;10402;49.012;8.370;2022-07-03T15:46:39;28.60;46.30
20487;DHT22;10402;49.012;8.370;2022-07-03T15:49:19;28.60;46.40
20487;DHT22;10402;49.012;8.370;2022-07-03T15:51:56;28.50;46.40
20487;DHT22;10402;49.012;8.370;2022-07-03T15:54:52;28.60;46.30
20487;DHT22;10402;49.012;8.370;2022-07-03T15:57:31;28.60;46.20
20487;DHT22;10402;49.012;8.370;2022-07-03T16:00:00;28.60;46.10
20487;DHT22;10402;49.012;8.370;2022-07-03T16:02:35;28.70;46.00
20487;DHT22;10402;49.012;8.370;2022-07-03T16:05:07;28.70;45.90
20487;DHT22;10402;49.012;8.370;2022-07-03T16:07:36;28.80;45.80
20487;DHT22;10402;49.012;8.370;2022-07-03T16:10:04;28.90;45.60
20487;DHT22;10402;49.012;8.370;2022-07-03T16:12:30;29.00;45.50
20487;DHT22;10402;49.012;8.370;2022-07-03T16:14:57;29.00;45.40
20487;DHT22;10402;49.012;8.370;2022-07-03T16:17:23;29.10;45.50
20487;DHT22;10402;49.012;8.370;2022-07-03T16:19:50;29.10;45.40
20487;DHT22;10402;49.012;8.370;2022-07-03T16:22:16;29.10;45.40
20487;DHT22;10402;49.012;8.370;2022-07-03T16:24:43;29.20;45.40
20487;DHT22;10402;49.012;8.370;2022-07-03T16:27:15;29.20;45.30
20487;DHT22;10402;49.012;8.370;2022-07-03T16:29:41;29.20;45.30
20487;DHT22;10402;49.012;8.370;2022-07-03T16:32:12;29.30;45.40
20487;DHT22;10402;49.012;8.370;2022-07-03T16:35:15;29.30;45.40
20487;DHT22;10402;49.012;8.370;2022-07-03T16:38:02;29.40;45.40
20487;DHT22;10402;49.012;8.370;2022-07-03T16:40:29;29.40;45.30
20487;DHT22;10402;49.012;8.370;2022-07-03T16:42:57;29.40;45.20
20487;DHT22;10402;49.012;8.370;2022-07-03T16:45:28;29.40;45.10
20487;DHT22;10402;49.012;8.370;2022-07-03T16:47:59;29.60;45.10